createdAt,value
2019-05-25T00:00:10.314Z,101022.98
2019-05-25T00:02:39.827Z,101026.84
2019-05-25T00:05:09.154Z,101026.55
2019-05-25T00:07:38.609Z,101015.78
2019-05-25T00:10:08.351Z,101021.80
2019-05-25T00:12:37.635Z,101022.61
2019-05-25T00:15:07.688Z,101025.08
2019-05-25T00:17:37.173Z,101021.52
2019-05-25T00:20:06.649Z,101026.98
2019-05-25T00:22:38.246Z,101035.22
2019-05-25T00:25:07.594Z,101034.36
2019-05-25T00:27:36.902Z,101036.52
2019-05-25T00:30:06.556Z,101035.11
2019-05-25T00:32:35.875Z,101030.95
2019-05-25T00:35:05.255Z,101036.69
2019-05-25T00:37:34.939Z,101032.83
2019-05-25T00:40:04.663Z,101028.39
2019-05-25T00:42:33.983Z,101032.48
2019-05-25T00:45:03.707Z,101035.20
2019-05-25T00:47:33.041Z,101038.53
2019-05-25T00:50:02.326Z,101042.89
2019-05-25T00:52:31.993Z,101044.51
2019-05-25T00:55:01.376Z,101044.81
2019-05-25T00:57:30.707Z,101042.89
2019-05-25T01:00:00.244Z,101043.72
2019-05-25T01:02:29.609Z,101038.77
2019-05-25T01:04:59.080Z,101042.39
2019-05-25T01:07:29.028Z,101042.14
2019-05-25T01:09:58.392Z,101041.31
2019-05-25T01:12:27.715Z,101050.10
2019-05-25T01:14:57.560Z,101050.10
2019-05-25T01:17:26.875Z,101041.06
2019-05-25T01:19:56.241Z,101043.53
2019-05-25T01:22:26.295Z,101050.95
2019-05-25T01:24:55.677Z,101049.05
2019-05-25T01:27:25.045Z,101051.81
2019-05-25T01:29:54.902Z,101048.80
2019-05-25T01:32:24.194Z,101049.64
2019-05-25T01:34:53.654Z,101049.11
2019-05-25T01:37:23.559Z,101047.21
2019-05-25T01:39:52.846Z,101048.34
2019-05-25T01:42:22.157Z,101051.36
2019-05-25T01:44:51.707Z,101055.19
2019-05-25T01:47:21.024Z,101050.82
2019-05-25T01:49:50.282Z,101051.41
2019-05-25T01:52:20.229Z,101051.19
2019-05-25T01:54:59.608Z,101044.08
2019-05-25T01:57:20.516Z,101043.55
2019-05-25T01:59:50.037Z,101047.98
2019-05-25T02:02:19.372Z,101049.09
2019-05-25T02:04:48.659Z,101056.53
2019-05-25T02:07:18.097Z,101055.70
2019-05-25T02:09:47.400Z,101060.40
2019-05-25T02:12:16.714Z,101055.44
2019-05-25T02:14:46.232Z,101052.97
2019-05-25T02:17:15.537Z,101050.49
2019-05-25T02:19:44.857Z,101050.20
2019-05-25T02:22:15.002Z,101055.16
2019-05-25T02:24:44.320Z,101061.46
2019-05-25T02:27:13.645Z,101054.88
2019-05-25T02:29:43.783Z,101053.21
2019-05-25T02:32:13.105Z,101062.00
2019-05-25T02:34:45.723Z,101057.89
2019-05-25T02:37:15.214Z,101064.75
2019-05-25T02:39:44.521Z,101056.99
2019-05-25T02:42:13.908Z,101063.31
2019-05-25T02:44:43.292Z,101059.72
2019-05-25T02:47:12.625Z,101065.74
2019-05-25T02:49:42.407Z,101067.39
2019-05-25T02:52:11.877Z,101071.79
2019-05-25T02:54:41.186Z,101063.00
2019-05-25T02:57:10.748Z,101066.03
2019-05-25T02:59:40.145Z,101070.16
2019-05-25T03:02:09.500Z,101077.56
2019-05-25T03:04:39.374Z,101070.99
2019-05-25T03:07:09.630Z,101068.59
2019-05-25T03:09:41.093Z,101074.94
2019-05-25T03:12:10.587Z,101071.09
2019-05-25T03:14:40.023Z,101076.05
2019-05-25T03:17:09.814Z,101074.41
2019-05-25T03:19:39.518Z,101076.08
2019-05-25T03:22:08.976Z,101079.12
2019-05-25T03:24:38.463Z,101075.30
2019-05-25T03:27:07.757Z,101072.27
2019-05-25T03:29:37.658Z,101078.06
2019-05-25T03:32:07.061Z,101069.27
2019-05-25T03:34:36.387Z,101071.20
2019-05-25T03:37:06.825Z,101065.70
2019-05-25T03:39:36.690Z,101071.22
2019-05-25T03:42:06.233Z,101066.83
2019-05-25T03:44:35.763Z,101065.97
2019-05-25T03:47:05.132Z,101067.90
2019-05-25T03:49:34.428Z,101069.28
2019-05-25T03:52:04.110Z,101060.74
2019-05-25T03:54:33.437Z,101068.44
2019-05-25T03:57:02.985Z,101063.43
2019-05-25T03:59:32.945Z,101067.20
2019-05-25T04:02:02.229Z,101064.71
2019-05-25T04:04:31.537Z,101062.53
2019-05-25T04:07:01.602Z,101067.56
2019-05-25T04:09:30.862Z,101065.06
2019-05-25T04:12:00.143Z,101068.09
2019-05-25T04:14:29.801Z,101071.91
2019-05-25T04:16:59.101Z,101074.04
2019-05-25T04:19:28.403Z,101069.24
2019-05-25T04:21:58.402Z,101071.59
2019-05-25T04:24:27.771Z,101066.80
2019-05-25T04:26:57.060Z,101072.22
2019-05-25T04:29:26.897Z,101069.95
2019-05-25T04:31:56.183Z,101068.45
2019-05-25T04:34:25.456Z,101071.10
2019-05-25T04:36:55.038Z,101075.67
2019-05-25T04:39:24.347Z,101073.77
2019-05-25T04:41:53.641Z,101082.77
2019-05-25T04:44:23.729Z,101080.22
2019-05-25T04:46:53.032Z,101077.22
2019-05-25T04:49:22.485Z,101079.08
2019-05-25T04:51:52.273Z,101075.38
2019-05-25T04:54:21.601Z,101078.44
2019-05-25T04:56:50.924Z,101073.09
2019-05-25T04:59:20.749Z,101071.26
2019-05-25T05:01:50.050Z,101072.14
2019-05-25T05:04:19.390Z,101073.91
2019-05-25T05:06:48.969Z,101077.29
2019-05-25T05:09:18.265Z,101080.03
2019-05-25T05:11:47.562Z,101078.66
2019-05-25T05:14:17.188Z,101073.13
2019-05-25T05:16:46.891Z,101073.70
2019-05-25T05:19:16.207Z,101074.94
2019-05-25T05:21:46.226Z,101064.51
2019-05-25T05:24:15.494Z,101071.16
2019-05-25T05:26:55.433Z,101077.19
2019-05-25T05:29:15.996Z,101066.98
2019-05-25T05:31:45.286Z,101069.62
2019-05-25T05:34:14.662Z,101073.67
2019-05-25T05:36:45.181Z,101071.84
2019-05-25T05:39:14.764Z,101076.22
2019-05-25T05:41:45.614Z,101076.91
2019-05-25T05:44:18.024Z,101080.81
2019-05-25T05:46:49.375Z,101086.31
2019-05-25T05:49:20.138Z,101088.14
2019-05-25T05:51:50.861Z,101098.55
2019-05-25T05:54:21.231Z,101095.29
2019-05-25T05:56:50.823Z,101102.63
2019-05-25T05:59:20.344Z,101104.11
2019-05-25T06:01:49.982Z,101110.42
2019-05-25T06:04:19.314Z,101113.78
2019-05-25T06:06:48.859Z,101112.72
2019-05-25T06:09:18.730Z,101110.00
2019-05-25T06:11:48.047Z,101109.94
2019-05-25T06:14:17.357Z,101108.01
2019-05-25T06:16:47.224Z,101106.47
2019-05-25T06:19:16.563Z,101108.63
2019-05-25T06:21:46.226Z,101111.08
2019-05-25T06:24:16.189Z,101122.31
2019-05-25T06:26:45.494Z,101118.84
2019-05-25T06:29:14.888Z,101126.09
2019-05-25T06:31:44.280Z,101123.61
2019-05-25T06:34:13.610Z,101123.69
2019-05-25T06:36:43.154Z,101126.02
2019-05-25T06:39:15.062Z,101126.35
2019-05-25T06:41:44.532Z,101134.88
2019-05-25T06:44:14.304Z,101135.95
2019-05-25T06:46:45.009Z,101136.17
2019-05-25T06:49:14.305Z,101139.55
2019-05-25T06:51:43.688Z,101133.56
2019-05-25T06:54:13.498Z,101143.17
2019-05-25T06:56:42.825Z,101139.80
2019-05-25T06:59:12.186Z,101141.14
2019-05-25T07:01:41.935Z,101142.59
2019-05-25T07:04:11.229Z,101137.69
2019-05-25T07:06:40.625Z,101128.87
2019-05-25T07:09:10.474Z,101114.94
2019-05-25T07:11:39.776Z,101115.52
2019-05-25T07:14:09.226Z,101099.25
2019-05-25T07:16:38.878Z,101112.56
2019-05-25T07:19:08.163Z,101107.31
2019-05-25T07:21:37.664Z,101110.63
2019-05-25T07:24:07.503Z,101097.71
2019-05-25T07:26:36.860Z,101108.41
2019-05-25T07:29:06.349Z,101107.91
2019-05-25T07:31:35.753Z,101121.33
2019-05-25T07:34:05.184Z,101116.17
2019-05-25T07:36:34.597Z,101113.41
2019-05-25T07:39:05.284Z,101111.02
2019-05-25T07:41:34.604Z,101112.76
2019-05-25T07:44:04.271Z,101115.11
2019-05-25T07:46:33.774Z,101118.25
2019-05-25T07:49:03.177Z,101109.56
2019-05-25T07:51:32.663Z,101119.77
2019-05-25T07:54:02.049Z,101120.00
2019-05-25T07:56:31.323Z,101125.66
2019-05-25T07:59:00.796Z,101124.68
2019-05-25T08:01:30.664Z,101132.67
2019-05-25T08:03:59.948Z,101129.48
2019-05-25T08:06:29.440Z,101127.02
2019-05-25T08:08:58.808Z,101134.94
2019-05-25T08:11:28.172Z,101130.89
2019-05-25T08:13:57.659Z,101128.20
2019-05-25T08:16:27.391Z,101126.69
2019-05-25T08:18:56.662Z,101130.66
2019-05-25T08:21:26.037Z,101130.34
2019-05-25T08:23:55.404Z,101134.03
2019-05-25T08:26:24.729Z,101136.20
2019-05-25T08:28:54.208Z,101133.90
2019-05-25T08:31:23.669Z,101140.16
2019-05-25T08:33:53.013Z,101151.62
2019-05-25T08:36:22.412Z,101153.91
2019-05-25T08:38:54.785Z,101153.60
2019-05-25T08:41:23.252Z,101159.33
2019-05-25T08:43:52.566Z,101158.77
2019-05-25T08:46:22.225Z,101163.03
2019-05-25T08:48:51.541Z,101158.24
2019-05-25T08:51:21.033Z,101148.79
2019-05-25T08:53:53.162Z,101156.69
2019-05-25T08:56:22.491Z,101151.20
2019-05-25T08:58:55.372Z,101158.72
2019-05-25T09:01:23.532Z,101160.06
2019-05-25T09:03:52.830Z,101155.66
2019-05-25T09:06:22.624Z,101158.61
2019-05-25T09:08:52.063Z,101163.26
2019-05-25T09:11:21.388Z,101164.34
2019-05-25T09:13:50.817Z,101160.44
2019-05-25T09:16:20.303Z,101167.38
2019-05-25T09:18:49.585Z,101170.69
2019-05-25T09:21:19.331Z,101165.55
2019-05-25T09:23:49.223Z,101177.35
2019-05-25T09:26:18.562Z,101175.70
2019-05-25T09:29:01.643Z,101180.61
2019-05-25T09:31:19.099Z,101187.03
2019-05-25T09:33:48.381Z,101189.94
2019-05-25T09:36:17.736Z,101190.97
2019-05-25T09:38:47.946Z,101190.87
2019-05-25T09:41:17.296Z,101200.05
2019-05-25T09:43:47.011Z,101197.34
2019-05-25T09:46:16.353Z,101204.97
2019-05-25T09:48:45.673Z,101205.30
2019-05-25T09:51:15.777Z,101202.99
2019-05-25T09:53:45.309Z,101206.15
2019-05-25T09:56:14.690Z,101197.92
2019-05-25T09:58:43.986Z,101206.46
2019-05-25T10:01:13.406Z,101206.94
2019-05-25T10:03:42.728Z,101207.23
2019-05-25T10:06:13.361Z,101202.87
2019-05-25T10:08:42.844Z,101201.55
2019-05-25T10:11:12.185Z,101193.96
2019-05-25T10:13:41.711Z,101201.23
2019-05-25T10:16:11.043Z,101201.53
2019-05-25T10:18:40.400Z,101198.62
2019-05-25T10:21:09.859Z,101199.78
2019-05-25T10:23:39.250Z,101208.64
2019-05-25T10:26:08.573Z,101204.55
2019-05-25T10:28:37.971Z,101209.71
2019-05-25T10:31:07.260Z,101205.22
2019-05-25T10:33:36.611Z,101203.88
2019-05-25T10:36:07.119Z,101207.45
2019-05-25T10:38:37.460Z,101204.90
2019-05-25T10:41:07.354Z,101204.52
2019-05-25T10:43:36.842Z,101209.95
2019-05-25T10:46:06.519Z,101208.77
2019-05-25T10:48:36.644Z,101212.98
2019-05-25T10:51:06.201Z,101215.16
2019-05-25T10:53:35.810Z,101213.91
2019-05-25T10:56:05.357Z,101226.50
2019-05-25T10:58:35.051Z,101205.95
2019-05-25T11:01:04.531Z,101217.66
2019-05-25T11:03:33.787Z,101217.05
2019-05-25T11:06:03.391Z,101210.33
2019-05-25T11:08:32.942Z,101206.53
2019-05-25T11:11:02.281Z,101204.73
2019-05-25T11:13:31.671Z,101205.94
2019-05-25T11:16:01.037Z,101206.52
2019-05-25T11:18:30.316Z,101206.75
2019-05-25T11:20:59.719Z,101197.69
2019-05-25T11:23:29.652Z,101206.39
2019-05-25T11:25:58.949Z,101199.43
2019-05-25T11:28:28.309Z,101202.80
2019-05-25T11:30:57.752Z,101208.33
2019-05-25T11:33:27.075Z,101209.74
2019-05-25T11:35:56.623Z,101203.28
2019-05-25T11:38:26.105Z,101198.47
2019-05-25T11:40:55.435Z,101200.83
2019-05-25T11:43:25.326Z,101201.51
2019-05-25T11:45:54.911Z,101197.66
2019-05-25T11:48:24.337Z,101194.96
2019-05-25T11:50:53.849Z,101208.61
2019-05-25T11:53:23.412Z,101201.89
2019-05-25T11:55:52.717Z,101199.22
2019-05-25T11:58:22.271Z,101204.86
2019-05-25T12:00:51.857Z,101203.91
2019-05-25T12:03:21.139Z,101206.16
2019-05-25T12:05:50.650Z,101201.66
2019-05-25T12:08:20.049Z,101198.14
2019-05-25T12:10:49.353Z,101202.06
2019-05-25T12:13:19.128Z,101200.27
2019-05-25T12:15:48.598Z,101204.72
2019-05-25T12:18:17.890Z,101206.77
2019-05-25T12:20:47.231Z,101209.19
2019-05-25T12:23:19.158Z,101209.91
2019-05-25T12:25:48.553Z,101214.48
2019-05-25T12:28:17.950Z,101208.39
2019-05-25T12:30:47.243Z,101211.09
2019-05-25T12:33:16.513Z,101203.91
2019-05-25T12:35:45.850Z,101203.91
2019-05-25T12:38:15.808Z,101205.66
2019-05-25T12:40:53.224Z,101206.03
2019-05-25T12:43:17.013Z,101205.77
2019-05-25T12:45:46.486Z,101209.78
2019-05-25T12:48:15.813Z,101204.81
2019-05-25T12:50:45.318Z,101204.93
2019-05-25T12:53:14.604Z,101205.52
2019-05-25T12:55:43.929Z,101201.47
2019-05-25T12:58:13.486Z,101205.39
2019-05-25T13:00:55.232Z,101206.02
2019-05-25T13:03:14.009Z,101197.50
2019-05-25T13:05:43.396Z,101192.63
2019-05-25T13:08:12.690Z,101191.12
2019-05-25T13:10:42.081Z,101194.41
2019-05-25T13:13:11.538Z,101185.98
2019-05-25T13:15:40.829Z,101198.55
2019-05-25T13:18:10.183Z,101195.23
2019-05-25T13:20:39.531Z,101193.01
2019-05-25T13:23:08.859Z,101196.56
2019-05-25T13:25:38.314Z,101188.98
2019-05-25T13:28:07.806Z,101195.52
2019-05-25T13:30:37.106Z,101189.70
2019-05-25T13:33:06.530Z,101185.00
2019-05-25T13:35:35.976Z,101180.50
2019-05-25T13:38:05.320Z,101178.80
2019-05-25T13:40:34.783Z,101180.28
2019-05-25T13:43:04.313Z,101183.39
2019-05-25T13:45:33.607Z,101179.91
2019-05-25T13:48:03.685Z,101183.20
2019-05-25T13:50:33.243Z,101179.20
2019-05-25T13:53:02.534Z,101182.95
2019-05-25T13:55:31.910Z,101176.39
2019-05-25T13:58:01.245Z,101178.55
2019-05-25T14:00:30.544Z,101173.47
2019-05-25T14:03:00.429Z,101172.09
2019-05-25T14:05:29.729Z,101172.09
2019-05-25T14:07:59.055Z,101172.44
2019-05-25T14:10:28.683Z,101165.37
2019-05-25T14:12:58.094Z,101170.13
2019-05-25T14:15:27.418Z,101168.38
2019-05-25T14:17:57.312Z,101166.11
2019-05-25T14:20:26.897Z,101158.59
2019-05-25T14:22:56.248Z,101166.27
2019-05-25T14:25:26.126Z,101161.39
2019-05-25T14:27:55.598Z,101163.38
2019-05-25T14:30:24.996Z,101162.12
2019-05-25T14:32:54.399Z,101162.03
2019-05-25T14:35:24.115Z,101164.39
2019-05-25T14:37:53.518Z,101165.05
2019-05-25T14:40:23.382Z,101163.16
2019-05-25T14:42:52.727Z,101161.74
2019-05-25T14:45:22.029Z,101167.99
2019-05-25T14:47:51.513Z,101165.28
2019-05-25T14:50:20.854Z,101160.20
2019-05-25T14:52:50.447Z,101140.84
2019-05-25T14:55:20.120Z,101158.81
2019-05-25T14:57:49.505Z,101167.72
2019-05-25T15:00:19.220Z,101160.58
2019-05-25T15:02:49.027Z,101158.72
2019-05-25T15:05:18.424Z,101155.92
2019-05-25T15:07:47.712Z,101158.28
2019-05-25T15:10:17.531Z,101154.40
2019-05-25T15:12:46.894Z,101151.55
2019-05-25T15:15:16.502Z,101154.09
2019-05-25T15:17:45.919Z,101155.21
2019-05-25T15:20:15.826Z,101154.43
2019-05-25T15:22:47.005Z,101147.41
2019-05-25T15:25:16.876Z,101151.92
2019-05-25T15:27:46.284Z,101153.49
2019-05-25T15:30:15.994Z,101143.49
2019-05-25T15:32:45.428Z,101145.23
2019-05-25T15:35:15.077Z,101141.78
2019-05-25T15:37:44.414Z,101138.69
2019-05-25T15:40:15.086Z,101139.69
2019-05-25T15:42:44.398Z,101139.92
2019-05-25T15:45:14.029Z,101130.27
2019-05-25T15:47:43.490Z,101130.27
2019-05-25T15:50:14.508Z,101137.80
2019-05-25T15:52:44.021Z,101130.49
2019-05-25T15:55:13.512Z,101130.49
2019-05-25T15:57:42.858Z,101129.46
2019-05-25T16:00:13.542Z,101129.46
2019-05-25T16:02:42.954Z,101137.71
2019-05-25T16:05:14.887Z,101133.27
2019-05-25T16:07:47.513Z,101135.18
2019-05-25T16:10:17.074Z,101135.18
2019-05-25T16:12:46.579Z,101133.36
2019-05-25T16:15:20.257Z,101132.28
2019-05-25T16:17:49.654Z,101132.03
2019-05-25T16:20:22.840Z,101129.50
2019-05-25T16:22:52.343Z,101120.65
2019-05-25T16:25:21.647Z,101123.92
2019-05-25T16:27:51.134Z,101120.33
2019-05-25T16:30:20.651Z,101125.98
2019-05-25T16:35:21.578Z,101119.41
2019-05-25T16:37:51.143Z,101110.25
2019-05-25T16:40:20.734Z,101110.84
2019-05-25T16:42:50.224Z,101103.95
2019-05-25T16:45:19.641Z,101106.39
2019-05-25T16:47:48.925Z,101105.88
2019-05-25T16:50:18.569Z,101104.48
2019-05-25T16:52:48.177Z,101099.19
2019-05-25T16:55:17.696Z,101100.75
2019-05-25T16:57:47.308Z,101100.75
2019-05-25T17:00:21.262Z,101099.84
2019-05-25T17:02:50.772Z,101100.42
2019-05-25T17:05:20.092Z,101104.58
2019-05-25T17:07:49.487Z,101101.89
2019-05-25T17:10:18.916Z,101097.81
2019-05-25T17:12:48.186Z,101095.09
2019-05-25T17:15:17.796Z,101091.56
2019-05-25T17:17:47.597Z,101097.94
2019-05-25T17:20:17.434Z,101087.95
2019-05-25T17:22:46.783Z,101095.83
2019-05-25T17:25:16.438Z,101099.04
2019-05-25T17:27:45.797Z,101094.16
2019-05-25T17:30:15.826Z,101098.30
2019-05-25T17:32:45.251Z,101093.92
2019-05-25T17:35:15.281Z,101090.29
2019-05-25T17:37:44.725Z,101086.18
2019-05-25T17:40:14.146Z,101093.67
2019-05-25T17:42:43.510Z,101084.82
2019-05-25T17:45:13.128Z,101084.92
2019-05-25T17:47:42.550Z,101080.23
2019-05-25T17:50:11.968Z,101090.28
2019-05-25T17:52:41.296Z,101081.22
2019-05-25T17:55:10.808Z,101083.55
2019-05-25T17:57:40.137Z,101084.52
2019-05-25T18:00:10.622Z,101085.84
2019-05-25T18:02:40.161Z,101083.16
2019-05-25T18:05:10.127Z,101082.53
2019-05-25T18:07:39.508Z,101087.22
2019-05-25T18:10:09.712Z,101085.11
2019-05-25T18:12:39.074Z,101089.09
2019-05-25T18:15:08.881Z,101088.63
2019-05-25T18:17:38.423Z,101084.06
2019-05-25T18:20:07.805Z,101074.19
2019-05-25T18:22:37.221Z,101077.27
2019-05-25T18:25:06.926Z,101075.20
2019-05-25T18:27:36.240Z,101082.28
2019-05-25T18:30:06.976Z,101075.91
2019-05-25T18:32:36.488Z,101079.64
2019-05-25T18:35:05.945Z,101074.73
2019-05-25T18:37:35.335Z,101081.75
2019-05-25T18:40:05.057Z,101086.67
2019-05-25T18:42:34.374Z,101087.05
2019-05-25T18:45:03.752Z,101082.72
2019-05-25T18:47:33.248Z,101083.39
2019-05-25T18:50:02.550Z,101088.09
2019-05-25T18:52:31.937Z,101086.94
2019-05-25T18:55:01.409Z,101084.20
2019-05-25T18:57:30.746Z,101085.57
2019-05-25T19:00:00.145Z,101091.25
2019-05-25T19:02:29.584Z,101082.84
2019-05-25T19:05:00.038Z,101086.34
2019-05-25T19:07:29.627Z,101084.92
2019-05-25T19:09:59.084Z,101089.02
2019-05-25T19:12:28.409Z,101096.03
2019-05-25T19:14:57.894Z,101094.50
2019-05-25T19:17:27.285Z,101104.15
2019-05-25T19:19:56.583Z,101097.05
2019-05-25T19:22:26.177Z,101101.86
2019-05-25T19:24:55.564Z,101107.14
2019-05-25T19:27:24.883Z,101106.97
2019-05-25T19:29:54.295Z,101101.53
2019-05-25T19:32:23.760Z,101109.38
2019-05-25T19:34:59.467Z,101106.13
2019-05-25T19:37:24.616Z,101105.73
2019-05-25T19:39:54.289Z,101107.00
2019-05-25T19:42:23.587Z,101109.45
2019-05-25T19:44:53.124Z,101107.32
2019-05-25T19:47:22.858Z,101103.83
2019-05-25T19:49:52.288Z,101106.44
2019-05-25T19:52:21.727Z,101112.91
2019-05-25T19:54:51.200Z,101112.73
2019-05-25T19:57:20.549Z,101114.41
2019-05-25T19:59:49.963Z,101109.44
2019-05-25T20:02:19.365Z,101109.78
2019-05-25T20:04:48.670Z,101113.71
2019-05-25T20:07:18.057Z,101110.41
2019-05-25T20:09:47.444Z,101119.81
2019-05-25T20:12:16.769Z,101115.67
2019-05-25T20:14:46.309Z,101112.61
2019-05-25T20:17:15.707Z,101119.00
2019-05-25T20:19:45.060Z,101119.62
2019-05-25T20:22:14.547Z,101118.87
2019-05-25T20:24:44.028Z,101125.26
2019-05-25T20:27:13.330Z,101123.88
2019-05-25T20:29:42.798Z,101124.24
2019-05-25T20:32:12.705Z,101127.06
2019-05-25T20:34:45.559Z,101125.73
2019-05-25T20:37:13.409Z,101126.03
2019-05-25T20:39:42.718Z,101129.66
2019-05-25T20:42:15.016Z,101126.55
2019-05-25T20:44:43.284Z,101127.05
2019-05-25T20:47:13.095Z,101122.66
2019-05-25T20:49:42.389Z,101132.28
2019-05-25T20:52:13.675Z,101133.34
2019-05-25T20:54:42.989Z,101135.28
2019-05-25T20:57:12.242Z,101140.25
2019-05-25T20:59:42.323Z,101134.68
2019-05-25T21:02:11.651Z,101138.87
2019-05-25T21:04:40.989Z,101140.03
2019-05-25T21:07:10.761Z,101136.98
2019-05-25T21:09:40.093Z,101132.88
2019-05-25T21:12:09.368Z,101125.11
2019-05-25T21:14:38.903Z,101131.77
2019-05-25T21:17:08.285Z,101127.98
2019-05-25T21:19:37.550Z,101133.27
2019-05-25T21:22:07.433Z,101131.93
2019-05-25T21:24:36.723Z,101124.52
2019-05-25T21:27:06.041Z,101132.27
2019-05-25T21:29:36.089Z,101133.95
2019-05-25T21:32:05.514Z,101140.03
2019-05-25T21:34:34.762Z,101131.78
2019-05-25T21:37:04.340Z,101129.29
2019-05-25T21:39:33.628Z,101125.19
2019-05-25T21:42:02.978Z,101135.92
2019-05-25T21:44:32.766Z,101135.95
2019-05-25T21:47:02.110Z,101129.33
2019-05-25T21:49:31.618Z,101132.94
2019-05-25T21:52:01.222Z,101128.27
2019-05-25T21:54:30.517Z,101129.65
2019-05-25T21:56:59.887Z,101129.41
2019-05-25T21:59:32.578Z,101135.25
2019-05-25T22:02:00.706Z,101125.03
2019-05-25T22:04:30.379Z,101126.98
2019-05-25T22:06:59.922Z,101127.02
2019-05-25T22:09:29.220Z,101123.14
2019-05-25T22:11:59.269Z,101125.08
2019-05-25T22:14:28.892Z,101123.98
2019-05-25T22:16:58.232Z,101124.80
2019-05-25T22:19:28.059Z,101123.42
2019-05-25T22:21:57.450Z,101119.58
2019-05-25T22:24:26.754Z,101117.93
2019-05-25T22:26:56.183Z,101117.11
2019-05-25T22:29:25.677Z,101107.75
2019-05-25T22:31:55.067Z,101105.00
2019-05-25T22:34:24.373Z,101105.02
2019-05-25T22:36:53.879Z,101102.54
2019-05-25T22:39:23.231Z,101099.25
2019-05-25T22:41:52.758Z,101097.87
2019-05-25T22:44:22.069Z,101094.87
2019-05-25T22:46:51.477Z,101094.87
2019-05-25T22:49:20.961Z,101101.20
2019-05-25T22:51:50.381Z,101085.22
2019-05-25T22:54:19.770Z,101072.26
2019-05-25T22:56:49.980Z,101074.98
2019-05-25T22:59:19.522Z,101076.89
2019-05-25T23:01:48.795Z,101070.00
2019-05-25T23:04:18.972Z,101068.36
2019-05-25T23:06:58.019Z,101066.70
2019-05-25T23:09:19.430Z,101058.67
2019-05-25T23:11:48.888Z,101053.69
2019-05-25T23:14:18.454Z,101051.23
2019-05-25T23:16:47.763Z,101053.98
2019-05-25T23:19:17.260Z,101046.50
2019-05-25T23:21:46.780Z,101048.15
2019-05-25T23:24:16.027Z,101041.26
2019-05-25T23:26:45.454Z,101043.72
2019-05-25T23:29:14.828Z,101034.30
2019-05-25T23:31:44.161Z,101031.50
2019-05-25T23:34:13.665Z,101029.78
2019-05-25T23:36:42.975Z,101028.14
2019-05-25T23:39:12.316Z,101023.14
2019-05-25T23:41:41.850Z,101019.83
2019-05-25T23:44:11.265Z,101022.80
2019-05-25T23:46:40.667Z,101020.59
2019-05-25T23:49:10.657Z,101012.58
2019-05-25T23:51:39.993Z,101010.89
2019-05-25T23:54:09.303Z,101010.84
2019-05-25T23:56:38.720Z,101009.72
2019-05-25T23:59:08.026Z,101003.08
